Time;durP1;ratioP1;P1;durP2;ratioP2;P2;SDS_P1;SDS_P2;PMS_P1;PMS_P2;Temp;Humidity;BMP_temperature;BMP_pressure;BME280_temperature;BME280_humidity;BME280_pressure;Samples;Min_cycle;Max_cycle;Signal;HPM_P1;HPM_P2
2022/11/06 00:00:39;;;;;;;10.20;3.90;;;;;;;11.25;46.18;101530.84;7395381;19;19999;-68
2022/11/06 00:03:06;;;;;;;9.52;4.28;;;;;;;11.21;46.32;101520.94;7396123;19;20009;-67
2022/11/06 00:08:26;;;;;;;9.55;4.30;;;;;;;11.14;46.37;101526.09;7392964;19;20482;-65
2022/11/06 00:10:52;;;;;;;7.03;3.92;;;;;;;10.98;46.80;101512.97;7395105;19;20014;-65
2022/11/06 00:13:17;;;;;;;9.57;4.35;;;;;;;11.03;46.59;101518.25;7394462;19;20005;-66
2022/11/06 00:15:49;;;;;;;10.13;4.28;;;;;;;11.11;46.57;101505.69;7391984;19;20007;-68
2022/11/06 00:18:15;;;;;;;11.35;4.22;;;;;;;10.87;47.72;101500.78;7394175;19;20018;-68
2022/11/06 00:20:41;;;;;;;8.35;4.05;;;;;;;10.90;47.72;101497.41;7392846;19;20574;-69
2022/11/06 00:23:06;;;;;;;10.40;4.50;;;;;;;10.96;47.73;101498.84;7393349;19;20003;-69
2022/11/06 00:25:32;;;;;;;11.32;5.00;;;;;;;10.78;48.18;101497.28;7393700;19;20080;-68
2022/11/06 00:27:58;;;;;;;10.45;4.20;;;;;;;10.95;48.03;101485.50;7393212;19;20034;-68
2022/11/06 00:30:23;;;;;;;11.90;4.60;;;;;;;10.88;47.93;101478.59;7394619;19;19999;-66
2022/11/06 00:32:49;;;;;;;10.88;4.43;;;;;;;10.90;47.68;101481.03;7393364;19;20018;-67
2022/11/06 00:35:15;;;;;;;9.68;3.55;;;;;;;11.03;47.87;101477.28;7393733;19;20026;-66
2022/11/06 00:37:40;;;;;;;10.57;4.55;;;;;;;11.08;47.52;101485.28;7391524;19;19999;-64
2022/11/06 00:40:06;;;;;;;12.48;4.05;;;;;;;11.22;47.08;101485.09;7392895;19;20006;-66
2022/11/06 00:42:32;;;;;;;9.25;4.10;;;;;;;11.22;47.13;101484.25;7394680;19;19999;-66
2022/11/06 00:44:57;;;;;;;10.05;4.13;;;;;;;11.25;47.00;101491.81;7393978;19;20476;-69
2022/11/06 00:47:23;;;;;;;11.75;4.60;;;;;;;11.17;47.36;101481.72;7392637;19;20002;-67
2022/11/06 00:49:49;;;;;;;9.32;4.47;;;;;;;11.07;47.58;101478.25;7394015;19;20349;-68
2022/11/06 00:52:15;;;;;;;9.73;4.47;;;;;;;10.86;47.86;101471.88;7393200;19;20003;-71
2022/11/06 00:54:40;;;;;;;11.55;4.82;;;;;;;10.86;48.14;101478.16;7394987;19;19998;-69
2022/11/06 00:57:06;;;;;;;10.50;4.28;;;;;;;10.66;48.47;101468.69;7391011;19;19994;-70
2022/11/06 00:59:32;;;;;;;11.35;4.30;;;;;;;10.81;48.00;101478.31;7393098;19;19999;-70
2022/11/06 01:01:58;;;;;;;10.43;4.63;;;;;;;10.68;48.35;101469.16;7391516;19;20462;-71
2022/11/06 01:04:24;;;;;;;12.57;4.90;;;;;;;10.86;47.93;101469.94;7391442;19;20122;-70
2022/11/06 01:06:55;;;;;;;12.95;5.03;;;;;;;10.81;47.95;101475.59;7391271;19;20003;-69
2022/11/06 01:09:23;;;;;;;11.85;4.50;;;;;;;10.85;47.53;101470.28;7392175;19;20010;-69
2022/11/06 01:11:52;;;;;;;11.75;4.90;;;;;;;10.70;48.12;101464.22;7391555;19;20011;-73
2022/11/06 01:14:19;;;;;;;10.57;4.30;;;;;;;10.84;47.90;101460.50;7391955;19;20018;-71
2022/11/06 01:16:45;;;;;;;10.05;4.55;;;;;;;10.94;47.46;101454.66;7390528;19;20002;-71
2022/11/06 01:19:13;;;;;;;8.35;4.05;;;;;;;10.90;47.64;101453.72;7393785;19;20018;-67
2022/11/06 01:21:42;;;;;;;12.15;4.32;;;;;;;10.82;47.81;101457.28;7391761;19;20002;-66
2022/11/06 01:24:12;;;;;;;13.00;4.97;;;;;;;10.93;47.53;101450.31;7393159;19;20054;-69
2022/11/06 01:26:38;;;;;;;8.73;4.32;;;;;;;10.97;47.55;101453.19;7391346;19;20446;-72
2022/11/06 01:29:06;;;;;;;11.30;4.55;;;;;;;10.95;47.68;101453.53;7393316;19;20468;-68
2022/11/06 01:31:33;;;;;;;10.05;4.43;;;;;;;11.15;47.14;101457.44;7392174;19;20006;-71
2022/11/06 01:34:00;;;;;;;10.57;4.88;;;;;;;11.13;47.26;101459.72;7392114;19;20003;-71
2022/11/06 01:36:27;;;;;;;13.15;4.80;;;;;;;11.03;47.24;101460.88;7386512;19;20530;-70
2022/11/06 01:38:56;;;;;;;10.05;4.35;;;;;;;10.93;47.38;101455.78;7391512;19;20545;-70
2022/11/06 01:41:27;;;;;;;12.40;5.00;;;;;;;10.95;47.36;101452.72;7391947;19;20022;-71
2022/11/06 01:43:54;;;;;;;12.30;4.55;;;;;;;10.98;47.36;101458.34;7396994;19;20014;-69
2022/11/06 01:46:26;;;;;;;11.98;4.93;;;;;;;11.01;47.38;101454.16;7390436;19;20006;-72
2022/11/06 01:48:59;;;;;;;13.27;4.85;;;;;;;11.12;47.17;101447.16;7389654;19;20024;-72
2022/11/06 01:51:28;;;;;;;10.77;5.00;;;;;;;11.10;47.19;101455.72;7392422;19;20006;-72
2022/11/06 01:53:54;;;;;;;12.38;5.32;;;;;;;11.04;47.32;101450.78;7392572;19;20289;-72
2022/11/06 01:56:21;;;;;;;13.15;4.78;;;;;;;10.79;47.93;101452.50;7389680;19;19999;-70
2022/11/06 01:58:52;;;;;;;10.65;4.40;;;;;;;10.64;48.18;101449.13;7392217;19;20031;-69
2022/11/06 02:01:18;;;;;;;10.70;5.10;;;;;;;10.94;47.52;101446.47;7394023;19;19991;-70
2022/11/06 02:03:54;;;;;;;9.63;4.85;;;;;;;11.00;47.11;101436.16;7394420;19;19998;-70
2022/11/06 02:06:19;;;;;;;10.18;4.82;;;;;;;11.06;47.22;101434.84;7390998;19;20002;-69
2022/11/06 02:08:45;;;;;;;12.13;4.68;;;;;;;10.93;47.37;101434.72;7391349;19;20007;-73
2022/11/06 02:11:11;;;;;;;11.23;5.18;;;;;;;11.11;47.27;101435.44;7391725;19;19995;-69
2022/11/06 02:14:01;;;;;;;14.00;5.05;;;;;;;10.92;47.38;101433.16;7391480;19;20367;-68
2022/11/06 02:16:53;;;;;;;9.57;4.40;;;;;;;10.61;47.98;101425.19;7387595;19;20009;-68
2022/11/06 02:20:01;;;;;;;10.63;5.10;;;;;;;10.81;47.47;101429.16;7391817;19;20006;-69
2022/11/06 02:22:57;;;;;;;10.52;5.10;;;;;;;10.87;47.63;101432.50;7391286;19;20003;-68
2022/11/06 02:25:55;;;;;;;12.40;4.82;;;;;;;10.82;47.48;101413.56;7388991;19;20007;-69
2022/11/06 02:28:31;;;;;;;16.30;5.32;;;;;;;11.00;47.16;101412.38;7385033;19;19999;-69
2022/11/06 02:31:04;;;;;;;12.90;4.68;;;;;;;10.80;47.61;101408.44;7390957;19;20006;-69
2022/11/06 02:33:37;;;;;;;11.77;4.95;;;;;;;11.00;47.26;101404.16;7390093;19;20003;-70
2022/11/06 02:36:13;;;;;;;10.63;4.85;;;;;;;11.04;46.82;101399.66;7388546;19;19997;-69
2022/11/06 02:38:43;;;;;;;11.00;4.65;;;;;;;11.03;46.96;101400.00;7387792;19;20006;-69
2022/11/06 02:41:16;;;;;;;8.65;4.43;;;;;;;10.89;47.20;101394.78;7390318;19;20037;-70
2022/11/06 02:43:46;;;;;;;10.80;4.60;;;;;;;10.82;47.45;101383.53;7390471;19;20007;-70
2022/11/06 02:46:17;;;;;;;9.48;4.35;;;;;;;10.88;47.57;101390.44;7389918;19;20003;-69
2022/11/06 02:48:49;;;;;;;10.60;4.30;;;;;;;11.10;46.68;101387.44;7394131;19;20003;-69
2022/11/06 02:51:22;;;;;;;11.40;4.60;;;;;;;10.95;46.97;101390.69;7398412;19;20070;-70
2022/11/06 02:53:48;;;;;;;12.15;4.93;;;;;;;10.83;47.19;101390.63;7397437;19;20065;-69
2022/11/06 02:56:20;;;;;;;10.02;4.32;;;;;;;11.01;47.07;101392.13;7395605;19;20006;-69
2022/11/06 02:58:53;;;;;;;10.77;4.07;;;;;;;11.07;46.69;101382.63;7397392;19;20034;-69
2022/11/06 03:01:37;;;;;;;11.63;4.10;;;;;;;10.78;47.39;101386.13;7395788;19;20517;-69
2022/11/06 03:04:15;;;;;;;13.00;4.68;;;;;;;10.91;46.95;101378.84;7398053;19;20288;-69
2022/11/06 03:06:47;;;;;;;11.00;4.35;;;;;;;10.79;47.39;101376.03;7393498;19;20067;-69
2022/11/06 03:09:18;;;;;;;9.75;4.40;;;;;;;10.78;47.33;101375.22;7393111;19;20002;-69
2022/11/06 03:11:49;;;;;;;12.43;4.43;;;;;;;10.96;46.87;101362.28;7396227;19;19998;-69
2022/11/06 03:14:31;;;;;;;12.65;4.40;;;;;;;10.89;47.09;101362.78;7395446;19;19995;-69
2022/11/06 03:16:59;;;;;;;9.88;4.20;;;;;;;10.82;47.27;101373.44;7393975;19;20059;-69
2022/11/06 03:19:49;;;;;;;12.15;4.15;;;;;;;10.84;46.86;101370.38;7395351;19;19999;-68
2022/11/06 03:22:45;;;;;;;9.30;4.15;;;;;;;11.01;46.71;101364.81;7395998;19;19999;-68
2022/11/06 03:25:25;;;;;;;9.85;3.65;;;;;;;11.09;46.65;101363.97;7396312;19;20003;-70
2022/11/06 03:28:14;;;;;;;10.40;4.43;;;;;;;11.27;46.38;101361.09;7392864;19;19999;-69
2022/11/06 03:30:57;;;;;;;10.65;3.88;;;;;;;11.04;46.80;101369.63;7395014;19;19998;-70
2022/11/06 03:33:49;;;;;;;10.00;3.90;;;;;;;11.08;46.29;101376.00;7395734;19;20003;-70
2022/11/06 03:36:25;;;;;;;10.95;4.45;;;;;;;10.91;46.81;101384.31;7394929;19;20003;-69
2022/11/06 03:38:57;;;;;;;9.43;4.18;;;;;;;10.86;47.00;101379.03;7395415;19;19995;-69
2022/11/06 03:41:33;;;;;;;11.70;4.10;;;;;;;10.91;46.96;101376.13;7395931;19;20009;-69
2022/11/06 03:44:02;;;;;;;9.48;4.15;;;;;;;11.01;46.63;101369.47;7395913;19;20058;-70
2022/11/06 03:46:30;;;;;;;8.00;3.90;;;;;;;10.98;46.50;101370.94;7394190;19;19998;-70
2022/11/06 03:49:01;;;;;;;10.82;3.97;;;;;;;11.11;46.44;101369.88;7393671;19;20023;-69
2022/11/06 03:51:37;;;;;;;11.27;4.30;;;;;;;11.05;46.46;101363.00;7395648;19;20320;-69
2022/11/06 03:54:41;;;;;;;12.98;4.18;;;;;;;10.91;46.81;101359.72;7393108;19;20016;-70
2022/11/06 03:57:18;;;;;;;8.40;4.30;;;;;;;10.83;47.06;101368.78;7390416;19;20023;-70
2022/11/06 03:59:48;;;;;;;12.77;4.75;;;;;;;10.94;46.53;101364.53;7392996;19;19994;-70
2022/11/06 04:02:16;;;;;;;10.13;4.07;;;;;;;10.91;46.78;101368.72;7394973;19;20675;-69
2022/11/06 04:04:50;;;;;;;8.90;3.70;;;;;;;10.85;46.96;101370.03;7394357;19;20459;-69
2022/11/06 04:07:21;;;;;;;12.07;3.90;;;;;;;10.89;46.84;101362.00;7392972;19;20058;-69
2022/11/06 04:15:23;;;;;;;9.77;4.32;;;;;;;10.70;47.17;101365.91;7394166;19;20011;-70
2022/11/06 04:17:49;;;;;;;10.48;3.67;;;;;;;10.85;46.93;101372.75;7392840;19;20031;-70
2022/11/06 04:23:31;;;;;;;10.82;3.88;;;;;;;10.81;47.07;101376.50;7394844;19;20478;-69
2022/11/06 04:29:05;;;;;;;9.07;3.95;;;;;;;10.50;47.58;101377.53;7393665;19;20003;-72
2022/11/06 04:31:39;;;;;;;10.70;4.50;;;;;;;10.43;47.78;101382.72;7394101;19;20006;-71
2022/11/06 04:34:26;;;;;;;9.15;4.07;;;;;;;10.67;47.38;101372.03;7392920;19;19999;-70
2022/11/06 04:37:05;;;;;;;8.38;4.20;;;;;;;10.72;46.86;101380.03;7391022;19;20006;-71
2022/11/06 04:39:45;;;;;;;10.48;4.35;;;;;;;10.52;47.52;101375.31;7393388;19;20346;-70
2022/11/06 04:42:20;;;;;;;12.25;3.75;;;;;;;10.70;47.26;101365.91;7392644;19;20040;-70
2022/11/06 04:44:51;;;;;;;10.60;3.88;;;;;;;10.61;46.98;101376.06;7392325;19;20106;-71
2022/11/06 04:47:21;;;;;;;11.32;4.47;;;;;;;10.68;47.18;101379.06;7392742;19;20016;-70
2022/11/06 04:49:49;;;;;;;10.63;3.90;;;;;;;10.58;47.42;101373.97;7390351;19;20014;-69
2022/11/06 04:52:22;;;;;;;10.00;4.00;;;;;;;10.69;47.23;101369.75;7391666;19;20006;-69
2022/11/06 04:54:49;;;;;;;11.70;4.30;;;;;;;10.66;47.26;101364.16;7393421;19;20361;-69
2022/11/06 04:57:14;;;;;;;10.40;3.95;;;;;;;10.33;48.30;101372.94;7392713;19;20228;-70
2022/11/06 04:59:40;;;;;;;11.75;4.15;;;;;;;10.46;47.93;101366.47;7393714;19;20006;-69
2022/11/06 05:02:06;;;;;;;9.45;3.95;;;;;;;10.65;47.46;101374.28;7392811;19;20006;-70
2022/11/06 05:04:32;;;;;;;13.07;3.70;;;;;;;10.80;47.21;101374.88;7393752;19;20019;-68
2022/11/06 05:06:58;;;;;;;10.30;3.92;;;;;;;10.63;47.57;101368.34;7391347;19;20002;-69
2022/11/06 05:09:24;;;;;;;10.38;3.80;;;;;;;10.66;47.42;101364.97;7389822;19;20071;-69
2022/11/06 05:11:50;;;;;;;10.07;4.07;;;;;;;10.82;47.08;101367.97;7392409;19;19999;-69
2022/11/06 05:14:16;;;;;;;11.57;3.67;;;;;;;10.83;47.02;101363.31;7392227;19;20070;-70
2022/11/06 05:16:41;;;;;;;10.88;3.80;;;;;;;10.90;46.97;101352.66;7391410;19;20027;-70
2022/11/06 05:19:16;;;;;;;11.38;3.75;;;;;;;10.87;46.95;101359.59;7393050;19;20018;-69
2022/11/06 05:24:26;;;;;;;;;;;;;;;10.69;47.46;101358.84;7394383;19;20016;-69
2022/11/06 05:26:51;;;;;;;8.48;3.80;;;;;;;10.95;46.94;101363.38;7394379;19;19930;-69
2022/11/06 05:29:17;;;;;;;9.10;3.70;;;;;;;10.92;46.85;101358.59;7390534;19;20006;-70
2022/11/06 05:31:42;;;;;;;8.73;3.20;;;;;;;10.99;46.73;101358.88;7393255;19;20006;-69
2022/11/06 05:34:08;;;;;;;9.27;3.75;;;;;;;11.10;46.37;101360.09;7393111;19;19999;-63
2022/11/06 05:36:52;;;;;;;9.88;3.72;;;;;;;10.93;47.14;101368.38;7386438;19;20009;-63
2022/11/06 05:39:36;;;;;;;11.55;3.75;;;;;;;10.92;47.55;101361.31;7387610;19;20009;-63
2022/11/06 05:42:20;;;;;;;8.50;3.60;;;;;;;11.00;47.54;101356.94;7388142;19;20359;-63
2022/11/06 05:45:05;;;;;;;10.13;3.47;;;;;;;10.97;47.36;101343.94;7386615;19;20515;-61
2022/11/06 05:47:49;;;;;;;10.93;4.10;;;;;;;10.65;48.34;101354.38;7391395;19;20465;-61
2022/11/06 05:50:15;;;;;;;11.48;3.72;;;;;;;10.58;48.87;101352.16;7391224;19;20062;-61
2022/11/06 05:52:40;;;;;;;11.35;3.70;;;;;;;10.80;48.45;101351.09;7391610;19;19998;-61
2022/11/06 05:55:06;;;;;;;9.70;3.60;;;;;;;10.86;48.44;101343.53;7391851;19;20005;-62
2022/11/06 05:57:32;;;;;;;14.23;3.85;;;;;;;10.68;48.75;101357.22;7390164;19;20022;-61
2022/11/06 05:59:58;;;;;;;11.20;3.83;;;;;;;10.44;49.49;101351.56;7391877;19;20083;-61
2022/11/06 06:02:23;;;;;;;11.77;3.80;;;;;;;10.68;48.86;101353.72;7390186;19;20078;-61
2022/11/06 06:04:49;;;;;;;11.73;3.80;;;;;;;10.87;48.37;101358.78;7391744;19;20023;-62
2022/11/06 06:07:14;;;;;;;9.73;3.30;;;;;;;10.90;48.25;101352.66;7389856;19;20030;-61
2022/11/06 06:09:53;;;;;;;11.45;3.80;;;;;;;10.81;48.35;101351.91;7387866;19;20007;-61
2022/11/06 06:12:19;;;;;;;11.80;3.60;;;;;;;10.82;48.70;101342.59;7388686;19;20030;-61
2022/11/06 06:14:44;;;;;;;9.15;3.50;;;;;;;10.82;48.74;101346.13;7391848;19;19998;-62
2022/11/06 06:17:10;;;;;;;8.40;3.40;;;;;;;10.80;48.76;101336.66;7386468;19;19991;-61
2022/11/06 06:19:36;;;;;;;9.85;3.55;;;;;;;10.78;49.10;101334.25;7389454;19;19999;-61
2022/11/06 06:22:01;;;;;;;8.93;3.47;;;;;;;10.81;49.18;101327.34;7396068;19;19998;-61
2022/11/06 06:24:27;;;;;;;10.07;3.22;;;;;;;10.89;48.94;101324.56;7396596;19;19998;-61
2022/11/06 06:26:52;;;;;;;6.78;2.95;;;;;;;10.80;48.68;101323.78;7396865;19;20016;-61
2022/11/06 06:29:18;;;;;;;7.75;2.95;;;;;;;10.90;48.32;101317.16;7395696;19;20011;-61
2022/11/06 06:31:44;;;;;;;8.18;2.88;;;;;;;10.91;48.42;101313.31;7398945;19;20007;-61
2022/11/06 06:34:09;;;;;;;7.07;2.97;;;;;;;10.76;48.63;101319.34;7396748;19;20510;-61
2022/11/06 06:36:35;;;;;;;8.40;3.03;;;;;;;10.72;48.87;101317.25;7395405;19;20030;-61
2022/11/06 06:39:00;;;;;;;9.07;3.42;;;;;;;10.89;48.37;101318.31;7397571;19;19998;-61
2022/11/06 06:41:26;;;;;;;7.93;2.92;;;;;;;10.80;48.48;101309.34;7397012;19;20026;-61
2022/11/06 06:43:51;;;;;;;6.63;2.85;;;;;;;10.98;47.93;101310.84;7397099;19;20066;-61
2022/11/06 06:46:17;;;;;;;9.43;2.90;;;;;;;10.88;47.97;101317.47;7397836;19;19999;-61
2022/11/06 06:48:43;;;;;;;8.82;2.90;;;;;;;10.87;48.33;101323.28;7397319;19;19994;-61
2022/11/06 06:51:08;;;;;;;9.63;3.00;;;;;;;10.65;48.13;101318.88;7399305;19;20355;-61
2022/11/06 06:53:35;;;;;;;8.02;2.80;;;;;;;10.53;48.78;101331.28;7397678;19;20031;-61
2022/11/06 06:56:01;;;;;;;8.50;2.80;;;;;;;10.71;48.32;101333.94;7394705;19;20446;-61
2022/11/06 06:58:27;;;;;;;13.20;2.97;;;;;;;10.86;48.16;101335.34;7398144;19;20002;-61
2022/11/06 07:00:54;;;;;;;9.23;3.33;;;;;;;10.70;48.25;101327.69;7396895;19;20105;-62
2022/11/06 07:03:20;;;;;;;7.10;2.47;;;;;;;10.92;47.67;101323.06;7399606;19;20007;-62
2022/11/06 07:05:46;;;;;;;10.10;2.70;;;;;;;10.78;48.21;101328.00;7395566;19;20489;-61
2022/11/06 07:08:11;;;;;;;6.65;2.83;;;;;;;10.89;47.91;101334.69;7397372;19;20010;-62
2022/11/06 07:10:37;;;;;;;11.23;2.80;;;;;;;11.02;47.77;101333.66;7393257;19;20046;-61
2022/11/06 07:13:05;;;;;;;10.65;2.88;;;;;;;11.11;47.30;101333.59;7398074;19;20006;-62
2022/11/06 07:15:31;;;;;;;8.52;2.40;;;;;;;11.12;47.22;101337.91;7399604;19;19994;-61
2022/11/06 07:18:04;;;;;;;11.20;3.15;;;;;;;10.95;47.44;101332.56;7396650;19;20320;-61
2022/11/06 07:20:30;;;;;;;8.82;2.50;;;;;;;11.02;47.52;101339.09;7397394;19;20006;-62
2022/11/06 07:22:56;;;;;;;9.68;2.75;;;;;;;10.86;47.86;101332.63;7394058;19;20483;-62
2022/11/06 07:25:23;;;;;;;9.10;2.25;;;;;;;10.90;47.69;101341.72;7395474;19;20008;-61
2022/11/06 07:27:49;;;;;;;7.45;2.40;;;;;;;11.03;47.62;101345.38;7392895;19;20001;-61
2022/11/06 07:30:15;;;;;;;7.25;3.03;;;;;;;11.18;47.27;101349.44;7400316;19;20003;-61
2022/11/06 07:32:47;;;;;;;7.35;2.55;;;;;;;11.07;47.37;101352.56;7395362;19;20032;-61
2022/11/06 07:35:13;;;;;;;8.45;2.65;;;;;;;11.00;47.35;101352.28;7395894;19;20363;-61
2022/11/06 07:37:38;;;;;;;6.60;2.40;;;;;;;10.93;47.60;101352.00;7395342;19;20114;-61
2022/11/06 07:40:04;;;;;;;7.80;2.60;;;;;;;10.98;47.48;101353.75;7397004;19;19995;-61
2022/11/06 07:42:30;;;;;;;8.75;2.40;;;;;;;10.89;47.77;101356.53;7395790;19;20002;-62
2022/11/06 07:44:56;;;;;;;11.63;2.60;;;;;;;11.08;47.61;101359.63;7396342;19;19996;-62
2022/11/06 07:47:21;;;;;;;8.32;2.40;;;;;;;11.22;47.55;101353.09;7393341;19;20070;-61
2022/11/06 07:49:47;;;;;;;9.38;2.40;;;;;;;11.24;47.26;101350.84;7392091;19;20062;-63
2022/11/06 07:52:13;;;;;;;9.52;2.72;;;;;;;11.28;47.11;101340.84;7394791;19;20003;-62
2022/11/06 07:54:39;;;;;;;8.48;2.33;;;;;;;11.21;47.58;101346.06;7395292;19;19999;-61
2022/11/06 07:57:04;;;;;;;6.78;2.47;;;;;;;11.26;47.21;101343.91;7392920;19;20458;-61
2022/11/06 07:59:30;;;;;;;9.10;2.60;;;;;;;11.18;47.44;101335.78;7395476;19;19995;-61
2022/11/06 08:01:55;;;;;;;7.43;2.70;;;;;;;11.00;47.82;101335.09;7395551;19;20027;-62
2022/11/06 08:04:21;;;;;;;7.00;2.33;;;;;;;11.23;47.18;101335.59;7394445;19;20479;-61
2022/11/06 08:06:47;;;;;;;8.55;2.85;;;;;;;11.34;47.11;101338.72;7392403;19;20038;-61
2022/11/06 08:09:12;;;;;;;9.98;2.70;;;;;;;11.42;46.88;101338.66;7392787;19;20353;-62
2022/11/06 08:11:38;;;;;;;10.65;3.13;;;;;;;11.39;46.86;101322.94;7393347;19;19995;-62
2022/11/06 08:14:03;;;;;;;7.97;2.60;;;;;;;11.32;47.10;101324.59;7395171;19;20023;-61
2022/11/06 08:16:29;;;;;;;9.18;2.63;;;;;;;11.08;47.49;101326.03;7391300;19;20357;-61
2022/11/06 08:18:55;;;;;;;6.88;2.60;;;;;;;11.30;47.26;101323.00;7395769;19;19994;-61
2022/11/06 08:21:21;;;;;;;8.27;2.50;;;;;;;11.45;46.89;101324.31;7392134;19;20363;-62
2022/11/06 08:23:46;;;;;;;10.05;2.70;;;;;;;11.30;47.35;101323.00;7394556;19;20002;-62
2022/11/06 08:26:12;;;;;;;7.47;2.28;;;;;;;11.21;47.26;101326.94;7390446;19;20003;-62
2022/11/06 08:28:38;;;;;;;8.50;2.25;;;;;;;11.44;46.94;101327.41;7391188;19;20002;-62
2022/11/06 08:31:05;;;;;;;8.82;2.38;;;;;;;11.27;47.41;101331.03;7393815;19;19999;-61
2022/11/06 08:33:31;;;;;;;5.85;2.35;;;;;;;11.31;47.34;101334.72;7392203;19;20447;-61
2022/11/06 08:36:04;;;;;;;8.75;2.25;;;;;;;11.30;47.30;101327.66;7392064;19;20073;-61
2022/11/06 08:38:29;;;;;;;9.68;2.50;;;;;;;11.35;47.29;101319.25;7393880;19;20009;-61
2022/11/06 08:40:55;;;;;;;6.10;2.15;;;;;;;11.45;46.75;101318.84;7394134;19;20421;-61
2022/11/06 08:43:25;;;;;;;7.55;2.28;;;;;;;11.51;46.95;101315.94;7393800;19;20030;-61
2022/11/06 08:45:51;;;;;;;7.97;2.28;;;;;;;11.71;46.69;101314.28;7391731;19;20005;-61
2022/11/06 08:48:17;;;;;;;8.73;2.40;;;;;;;11.65;46.33;101300.81;7390131;19;20002;-61
2022/11/06 08:50:43;;;;;;;8.93;2.58;;;;;;;11.56;46.95;101302.03;7393483;19;20002;-61
2022/11/06 08:53:09;;;;;;;7.55;2.03;;;;;;;11.66;46.64;101286.00;7393286;19;19995;-61
2022/11/06 08:55:37;;;;;;;7.35;2.17;;;;;;;11.59;46.79;101290.41;7393239;19;19995;-60
2022/11/06 08:58:05;;;;;;;7.25;2.10;;;;;;;11.61;46.72;101288.16;7390762;19;20062;-61
2022/11/06 09:00:32;;;;;;;7.15;2.55;;;;;;;11.67;46.94;101292.25;7394150;19;19999;-61
2022/11/06 09:03:05;;;;;;;5.50;2.00;;;;;;;11.61;46.84;101301.84;7392505;19;20009;-61
2022/11/06 09:05:31;;;;;;;7.88;2.17;;;;;;;11.78;46.62;101298.13;7392597;19;20007;-61
2022/11/06 09:07:58;;;;;;;12.45;2.60;;;;;;;11.71;46.89;101297.88;7391141;19;19999;-61
2022/11/06 09:10:25;;;;;;;7.72;2.60;;;;;;;11.73;46.80;101293.66;7391306;19;20082;-61
2022/11/06 09:12:50;;;;;;;6.95;2.10;;;;;;;11.93;46.38;101285.78;7392089;19;20007;-62
2022/11/06 09:15:16;;;;;;;6.78;2.10;;;;;;;11.87;46.67;101278.91;7392008;19;20006;-61
2022/11/06 09:17:46;;;;;;;8.10;2.72;;;;;;;11.98;46.31;101269.16;7390061;19;20010;-61
2022/11/06 09:20:13;;;;;;;8.60;2.35;;;;;;;11.63;47.14;101266.75;7392190;19;19999;-61
2022/11/06 09:22:39;;;;;;;8.80;2.40;;;;;;;11.93;46.60;101267.41;7390392;19;20002;-61
2022/11/06 09:25:06;;;;;;;8.30;2.40;;;;;;;12.30;45.87;101264.72;7391837;19;19998;-61
2022/11/06 09:27:32;;;;;;;10.13;2.40;;;;;;;12.27;45.88;101256.41;7391906;19;20022;-61
2022/11/06 09:29:57;;;;;;;5.30;2.20;;;;;;;12.44;45.67;101252.63;7389517;19;19994;-61
2022/11/06 09:32:23;;;;;;;8.07;2.25;;;;;;;12.28;45.73;101249.78;7391517;19;20097;-61
2022/11/06 09:34:49;;;;;;;6.85;2.50;;;;;;;11.83;46.83;101263.16;7389822;19;20006;-61
2022/11/06 09:37:15;;;;;;;8.88;2.35;;;;;;;11.92;46.62;101260.34;7391737;19;20463;-61
2022/11/06 09:39:41;;;;;;;8.23;2.00;;;;;;;12.03;46.43;101260.72;7389647;19;20009;-61
2022/11/06 09:42:42;;;;;;;5.28;1.90;;;;;;;12.08;46.36;101268.69;7393120;19;20017;-61
2022/11/06 09:45:16;;;;;;;8.82;2.35;;;;;;;12.08;46.20;101279.66;7389922;19;20029;-61
2022/11/06 09:47:50;;;;;;;7.40;2.03;;;;;;;12.13;45.98;101275.91;7389395;19;20175;-60
2022/11/06 09:50:20;;;;;;;7.20;2.35;;;;;;;12.26;45.87;101279.41;7390930;19;20030;-61
2022/11/06 09:52:51;;;;;;;7.75;1.80;;;;;;;12.00;46.44;101294.22;7389666;19;20026;-61
2022/11/06 09:55:30;;;;;;;7.78;2.25;;;;;;;11.99;46.52;101287.97;7388654;19;20430;-61
2022/11/06 09:58:17;;;;;;;7.40;2.22;;;;;;;11.97;46.20;101279.28;7390344;19;20059;-61
2022/11/06 10:00:43;;;;;;;7.00;1.98;;;;;;;12.10;46.06;101280.09;7390216;19;20110;-61
2022/11/06 10:03:18;;;;;;;5.10;1.80;;;;;;;12.38;45.59;101279.44;7391901;19;20006;-61
2022/11/06 10:05:45;;;;;;;8.65;2.03;;;;;;;12.49;45.45;101277.03;7390048;19;20003;-61
2022/11/06 10:08:23;;;;;;;7.97;2.10;;;;;;;12.51;45.17;101270.09;7387608;19;20002;-61
2022/11/06 10:11:13;;;;;;;10.35;2.25;;;;;;;12.46;45.55;101270.31;7389188;19;20014;-60
2022/11/06 10:13:39;;;;;;;9.45;2.25;;;;;;;12.45;45.63;101252.28;7389922;19;20018;-60
2022/11/06 10:16:18;;;;;;;7.13;1.75;;;;;;;12.49;45.62;101249.66;7390105;19;20002;-60
2022/11/06 10:19:16;;;;;;;3.78;1.45;;;;;;;12.46;45.47;101223.78;7390298;19;20003;-60
2022/11/06 10:22:15;;;;;;;6.70;1.77;;;;;;;12.58;45.39;101222.97;7389929;19;20481;-61
2022/11/06 10:24:58;;;;;;;8.10;1.92;;;;;;;12.63;45.50;101214.50;7391015;19;19999;-60
2022/11/06 10:27:34;;;;;;;9.10;2.00;;;;;;;12.77;45.09;101205.91;7389826;19;19998;-60
2022/11/06 10:30:08;;;;;;;7.53;1.73;;;;;;;12.76;45.19;101204.34;7388626;19;20022;-61
2022/11/06 10:33:08;;;;;;;5.10;1.80;;;;;;;12.88;44.94;101193.38;7389508;19;20058;-61
2022/11/06 10:35:41;;;;;;;8.02;2.05;;;;;;;12.75;45.30;101202.72;7389676;19;20013;-61
2022/11/06 10:38:13;;;;;;;9.70;2.83;;;;;;;12.80;45.50;101193.47;7390006;19;20015;-61
2022/11/06 10:40:42;;;;;;;6.45;1.83;;;;;;;12.62;45.73;101214.84;7390083;19;20007;-61
2022/11/06 10:43:14;;;;;;;7.60;1.70;;;;;;;12.98;45.16;101205.00;7389706;19;20490;-61
2022/11/06 10:45:46;;;;;;;5.35;1.75;;;;;;;12.90;45.06;101201.22;7388610;19;20026;-61
2022/11/06 10:48:30;;;;;;;6.32;1.73;;;;;;;13.01;44.97;101198.78;7392615;19;20006;-59
2022/11/06 10:51:05;;;;;;;5.88;1.50;;;;;;;13.12;45.13;101197.94;7390084;19;19999;-61
2022/11/06 10:53:56;;;;;;;4.50;1.70;;;;;;;13.07;45.02;101197.41;7389907;19;20011;-60
2022/11/06 10:56:38;;;;;;;4.93;1.90;;;;;;;12.99;45.20;101196.41;7387104;19;20002;-61
2022/11/06 10:59:04;;;;;;;7.78;2.17;;;;;;;12.80;45.57;101209.91;7391017;19;20008;-59
2022/11/06 11:01:30;;;;;;;7.10;1.98;;;;;;;12.89;45.05;101199.63;7389103;19;19999;-59
2022/11/06 11:03:55;;;;;;;5.05;1.67;;;;;;;12.96;45.12;101197.91;7390307;19;19994;-60
2022/11/06 11:06:21;;;;;;;7.20;1.90;;;;;;;13.02;44.85;101197.66;7387230;19;20376;-60
2022/11/06 11:08:52;;;;;;;5.82;1.63;;;;;;;13.11;44.93;101195.56;7395008;19;19997;-60
2022/11/06 11:11:26;;;;;;;4.80;1.77;;;;;;;12.94;45.19;101194.72;7396405;19;20017;-60
2022/11/06 11:13:54;;;;;;;7.50;2.00;;;;;;;13.09;45.16;101186.88;7396746;19;19999;-60
2022/11/06 11:16:23;;;;;;;8.77;1.95;;;;;;;12.98;45.19;101186.59;7393617;19;20010;-61
2022/11/06 11:18:49;;;;;;;9.68;1.90;;;;;;;13.14;45.05;101175.66;7395188;19;20094;-60
2022/11/06 11:21:18;;;;;;;5.82;1.60;;;;;;;13.31;44.51;101174.59;7395072;19;20082;-60
2022/11/06 11:23:45;;;;;;;8.52;1.60;;;;;;;13.62;44.06;101183.97;7395769;19;20470;-60
2022/11/06 11:26:24;;;;;;;6.82;1.98;;;;;;;13.70;44.14;101183.81;7397154;19;20003;-60
2022/11/06 11:28:53;;;;;;;11.05;1.70;;;;;;;13.81;43.97;101186.00;7394506;19;20458;-60
2022/11/06 11:31:26;;;;;;;6.10;1.67;;;;;;;13.73;44.25;101179.56;7396868;19;20002;-60
2022/11/06 11:33:55;;;;;;;7.28;1.50;;;;;;;13.41;44.59;101184.22;7394210;19;20003;-60
2022/11/06 11:36:22;;;;;;;8.05;1.40;;;;;;;13.44;44.52;101178.84;7394698;19;19999;-61
2022/11/06 11:38:48;;;;;;;5.13;1.55;;;;;;;13.59;44.14;101171.75;7395510;19;20002;-60
2022/11/06 11:41:22;;;;;;;6.70;1.75;;;;;;;13.55;44.30;101159.91;7395496;19;20002;-61
2022/11/06 11:43:57;;;;;;;5.18;1.52;;;;;;;13.54;44.48;101157.53;7395209;19;20013;-60
2022/11/06 11:46:22;;;;;;;7.90;1.70;;;;;;;13.59;44.12;101149.03;7391459;19;20010;-60
2022/11/06 11:48:54;;;;;;;6.60;1.90;;;;;;;13.73;44.12;101151.31;7391893;19;20020;-60
2022/11/06 11:51:26;;;;;;;5.47;1.27;;;;;;;13.84;43.89;101146.94;7394519;19;19999;-60
2022/11/06 11:54:16;;;;;;;6.15;1.52;;;;;;;13.60;44.32;101143.19;7393393;19;20329;-60